Weather at Crows Nest Helipad

Public forecast

Using degrees Celsius for public forecast. Weather courtesy of forecast.io.

Closest aviation weather report (METAR) to Crows Nest Helipad

Closest report is Oakey Airport, 19.4 nm (35.9 km) WSW. Retrieved 2020/10/29 01:00 UTC (28 minutes ago):

YBOK 290100Z AUTO 28011KT 9999 // NCD 24/06 Q1012

Closest aviation forecast (TAF) to Crows Nest Helipad

Closest forecast is RAAF Base Amberley, 41.5 nm (76.8 km) ESE. Retrieved 2020-10-29 00:00 UTC (1 hour ago):

TAF YAMB 282303Z 2900/3000 30010KT 9999 SCT040 FM291000 32005KT CAVOK